createdAt,value
2018-03-26T00:00:29.825Z,80.11
2018-03-26T00:01:29.801Z,81.06
2018-03-26T00:02:29.801Z,80.49
2018-03-26T00:03:29.794Z,80.77
2018-03-26T00:04:29.782Z,80.40
2018-03-26T00:05:29.764Z,80.77
2018-03-26T00:06:29.764Z,81.25
2018-03-26T00:07:29.750Z,80.68
2018-03-26T00:08:29.758Z,81.16
2018-03-26T00:09:29.742Z,80.87
2018-03-26T00:10:29.717Z,79.73
2018-03-26T00:11:29.721Z,80.49
2018-03-26T00:12:29.698Z,81.06
2018-03-26T00:13:29.700Z,80.77
2018-03-26T00:14:29.696Z,81.21
2018-03-26T00:15:29.672Z,80.77
2018-03-26T00:16:29.663Z,81.25
2018-03-26T00:17:29.655Z,80.96
2018-03-26T00:18:29.644Z,81.25
2018-03-26T00:19:29.647Z,81.06
2018-03-26T00:20:29.626Z,81.25
2018-03-26T00:21:29.628Z,81.25
2018-03-26T00:22:29.618Z,81.54
2018-03-26T00:23:29.600Z,80.96
2018-03-26T00:24:29.588Z,81.25
2018-03-26T00:25:29.593Z,81.06
2018-03-26T00:26:29.573Z,81.40
2018-03-26T00:27:29.563Z,81.02
2018-03-26T00:28:29.564Z,81.21
2018-03-26T00:29:29.554Z,80.45
2018-03-26T00:30:29.547Z,81.21
2018-03-26T00:31:29.528Z,81.12
2018-03-26T00:32:29.536Z,81.59
2018-03-26T00:33:29.507Z,81.30
2018-03-26T00:34:29.499Z,81.40
2018-03-26T00:35:29.489Z,81.02
2018-03-26T00:36:29.490Z,81.21
2018-03-26T00:37:29.490Z,81.02
2018-03-26T00:38:29.461Z,80.93
2018-03-26T00:39:29.452Z,82.07
2018-03-26T00:40:29.443Z,81.68
2018-03-26T00:41:29.443Z,81.21
2018-03-26T00:42:29.429Z,81.02
2018-03-26T00:43:29.428Z,80.93
2018-03-26T00:44:29.418Z,80.83
2018-03-26T00:45:29.398Z,81.21
2018-03-26T00:46:29.390Z,81.21
2018-03-26T00:47:29.380Z,81.12
2018-03-26T00:48:29.369Z,81.21
2018-03-26T00:49:29.362Z,80.83
2018-03-26T00:50:29.362Z,81.40
2018-03-26T00:51:29.381Z,80.93
2018-03-26T00:52:29.346Z,81.30
2018-03-26T00:53:29.324Z,81.49
2018-03-26T00:54:29.325Z,81.49
2018-03-26T00:55:29.306Z,81.21
2018-03-26T00:56:29.295Z,80.83
2018-03-26T00:57:29.287Z,81.68
2018-03-26T00:58:29.282Z,81.21
2018-03-26T00:59:29.267Z,82.07
2018-03-26T01:00:29.256Z,81.59
2018-03-26T01:01:29.251Z,81.30
2018-03-26T01:02:29.252Z,82.16
2018-03-26T01:03:29.228Z,81.49
2018-03-26T01:04:29.244Z,82.26
2018-03-26T01:05:29.225Z,81.49
2018-03-26T01:06:29.207Z,81.21
2018-03-26T01:07:29.192Z,81.02
2018-03-26T01:08:29.183Z,81.12
2018-03-26T01:09:29.175Z,81.30
2018-03-26T01:10:29.163Z,82.16
2018-03-26T01:11:29.157Z,81.68
2018-03-26T01:12:29.156Z,81.78
2018-03-26T01:13:29.136Z,81.40
2018-03-26T01:14:29.138Z,81.97
2018-03-26T01:15:29.118Z,81.68
2018-03-26T01:16:29.113Z,81.78
2018-03-26T01:17:29.101Z,81.97
2018-03-26T01:18:29.111Z,81.21
2018-03-26T01:19:29.102Z,81.40
2018-03-26T01:20:29.082Z,81.97
2018-03-26T01:21:29.086Z,82.07
2018-03-26T01:22:29.055Z,81.68
2018-03-26T01:23:29.043Z,81.78
2018-03-26T01:24:29.052Z,81.68
2018-03-26T01:25:29.046Z,81.40
2018-03-26T01:26:29.028Z,82.16
2018-03-26T01:27:29.020Z,81.68
2018-03-26T01:28:29.008Z,81.21
2018-03-26T01:29:28.996Z,81.30
2018-03-26T01:30:28.988Z,82.16
2018-03-26T01:31:28.967Z,81.87
2018-03-26T01:32:28.959Z,80.35
2018-03-26T01:33:28.952Z,81.87
2018-03-26T01:34:28.943Z,81.97
2018-03-26T01:35:28.947Z,81.97
2018-03-26T01:36:28.921Z,82.26
2018-03-26T01:37:28.911Z,81.97
2018-03-26T01:38:28.911Z,81.97
2018-03-26T01:39:28.904Z,81.97
2018-03-26T01:40:28.883Z,80.45
2018-03-26T01:41:28.877Z,82.45
2018-03-26T01:42:28.876Z,81.97
2018-03-26T01:43:28.865Z,81.93
2018-03-26T01:44:28.846Z,82.21
2018-03-26T01:45:28.859Z,81.30
2018-03-26T01:46:28.824Z,82.50
2018-03-26T01:47:28.828Z,81.74
2018-03-26T01:48:28.810Z,81.78
2018-03-26T01:49:28.806Z,82.40
2018-03-26T01:50:28.787Z,81.93
2018-03-26T01:51:28.790Z,81.74
2018-03-26T01:52:28.779Z,82.40
2018-03-26T01:53:28.757Z,82.03
2018-03-26T01:54:28.750Z,81.93
2018-03-26T01:55:28.737Z,82.40
2018-03-26T01:56:28.726Z,82.03
2018-03-26T01:57:28.714Z,82.40
2018-03-26T01:58:28.708Z,82.40
2018-03-26T01:59:28.700Z,82.40
2018-03-26T02:00:28.692Z,82.50
2018-03-26T02:01:28.677Z,82.31
2018-03-26T02:02:28.670Z,82.50
2018-03-26T02:03:28.668Z,82.50
2018-03-26T02:04:28.654Z,82.03
2018-03-26T02:05:28.641Z,82.40
2018-03-26T02:06:28.633Z,82.21
2018-03-26T02:07:28.623Z,82.40
2018-03-26T02:08:28.613Z,82.31
2018-03-26T02:09:28.605Z,81.93
2018-03-26T02:10:28.595Z,82.40
2018-03-26T02:11:28.585Z,82.69
2018-03-26T02:12:28.577Z,82.03
2018-03-26T02:13:28.568Z,82.69
2018-03-26T02:14:28.558Z,82.31
2018-03-26T02:15:28.546Z,82.69
2018-03-26T02:16:28.558Z,82.31
2018-03-26T02:17:28.528Z,82.78
2018-03-26T02:18:28.520Z,82.97
2018-03-26T02:19:28.509Z,82.59
2018-03-26T02:20:28.500Z,82.50
2018-03-26T02:21:28.490Z,82.50
2018-03-26T02:22:28.481Z,82.40
2018-03-26T02:23:28.471Z,82.40
2018-03-26T02:24:28.467Z,82.88
2018-03-26T02:25:28.451Z,82.78
2018-03-26T02:26:28.443Z,82.31
2018-03-26T02:27:28.433Z,82.69
2018-03-26T02:28:28.424Z,82.78
2018-03-26T02:29:28.414Z,82.50
2018-03-26T02:30:28.403Z,82.12
2018-03-26T02:31:28.396Z,82.40
2018-03-26T02:32:28.387Z,82.50
2018-03-26T02:33:28.377Z,82.69
2018-03-26T02:34:28.367Z,82.88
2018-03-26T02:35:28.355Z,83.54
2018-03-26T02:36:28.346Z,82.78
2018-03-26T02:37:28.342Z,82.69
2018-03-26T02:38:28.326Z,82.31
2018-03-26T02:39:28.320Z,82.78
2018-03-26T02:40:28.309Z,82.59
2018-03-26T02:41:28.298Z,82.31
2018-03-26T02:42:28.289Z,82.31
2018-03-26T02:43:28.279Z,82.69
2018-03-26T02:44:28.268Z,82.69
2018-03-26T02:45:28.260Z,82.69
2018-03-26T02:46:28.252Z,82.50
2018-03-26T02:47:28.238Z,83.07
2018-03-26T02:48:28.232Z,82.78
2018-03-26T02:49:28.222Z,82.50
2018-03-26T02:50:28.211Z,83.45
2018-03-26T02:51:28.208Z,83.07
2018-03-26T02:52:28.195Z,83.36
2018-03-26T02:53:28.182Z,82.78
2018-03-26T02:54:28.175Z,83.45
2018-03-26T02:55:28.164Z,83.16
2018-03-26T02:56:28.155Z,83.36
2018-03-26T02:57:28.145Z,82.88
2018-03-26T02:58:28.135Z,82.97
2018-03-26T02:59:28.124Z,82.78
2018-03-26T03:00:28.115Z,82.97
2018-03-26T03:01:28.117Z,82.97
2018-03-26T03:02:28.095Z,82.88
2018-03-26T03:03:28.088Z,83.07
2018-03-26T03:04:28.077Z,82.97
2018-03-26T03:05:28.067Z,83.36
2018-03-26T03:06:28.057Z,83.26
2018-03-26T03:07:28.048Z,83.07
2018-03-26T03:08:28.038Z,82.78
2018-03-26T03:09:28.030Z,83.26
2018-03-26T03:10:28.018Z,83.26
2018-03-26T03:11:28.008Z,82.97
2018-03-26T03:12:28.000Z,83.45
2018-03-26T03:13:27.989Z,82.69
2018-03-26T03:14:27.980Z,83.36
2018-03-26T03:15:27.971Z,82.46
2018-03-26T03:16:27.959Z,83.36
2018-03-26T03:17:27.948Z,83.50
2018-03-26T03:18:27.941Z,83.40
2018-03-26T03:19:27.935Z,83.22
2018-03-26T03:20:27.922Z,82.84
2018-03-26T03:21:27.920Z,83.59
2018-03-26T03:22:27.901Z,83.50
2018-03-26T03:23:27.891Z,82.93
2018-03-26T03:24:27.877Z,82.93
2018-03-26T03:25:27.874Z,82.84
2018-03-26T03:26:27.866Z,83.12
2018-03-26T03:27:27.851Z,83.22
2018-03-26T03:28:27.842Z,82.74
2018-03-26T03:29:27.833Z,83.03
2018-03-26T03:30:27.823Z,83.50
2018-03-26T03:31:27.820Z,83.22
2018-03-26T03:32:27.805Z,83.03
2018-03-26T03:33:27.793Z,83.22
2018-03-26T03:34:27.786Z,83.03
2018-03-26T03:35:27.773Z,82.93
2018-03-26T03:36:27.766Z,82.93
2018-03-26T03:37:27.754Z,82.74
2018-03-26T03:38:27.746Z,83.22
2018-03-26T03:39:27.735Z,83.31
2018-03-26T03:40:27.724Z,82.93
2018-03-26T03:41:27.715Z,82.93
2018-03-26T03:42:27.703Z,83.03
2018-03-26T03:43:27.744Z,82.84
2018-03-26T03:44:27.685Z,82.93
2018-03-26T03:45:27.675Z,82.74
2018-03-26T03:46:27.666Z,82.74
2018-03-26T03:47:27.657Z,82.93
2018-03-26T03:48:27.646Z,83.22
2018-03-26T03:49:27.637Z,81.51
2018-03-26T03:50:27.627Z,82.74
2018-03-26T03:51:27.615Z,83.03
2018-03-26T03:52:27.607Z,83.03
2018-03-26T03:53:27.599Z,82.55
2018-03-26T03:54:27.587Z,82.93
2018-03-26T03:55:27.578Z,82.74
2018-03-26T03:56:27.569Z,82.46
2018-03-26T03:57:27.559Z,83.12
2018-03-26T03:58:27.547Z,83.12
2018-03-26T03:59:27.540Z,82.65
2018-03-26T04:00:27.529Z,82.93
2018-03-26T04:01:27.518Z,82.46
2018-03-26T04:02:27.509Z,82.93
2018-03-26T04:03:27.500Z,83.03
2018-03-26T04:04:27.490Z,83.03
2018-03-26T04:05:27.477Z,83.12
2018-03-26T04:06:27.472Z,82.46
2018-03-26T04:07:27.462Z,82.74
2018-03-26T04:08:27.451Z,82.93
2018-03-26T04:09:27.442Z,81.70
2018-03-26T04:10:27.431Z,82.46
2018-03-26T04:11:27.423Z,83.12
2018-03-26T04:12:27.413Z,81.79
2018-03-26T04:13:27.403Z,83.03
2018-03-26T04:14:27.393Z,83.22
2018-03-26T04:15:27.383Z,83.12
2018-03-26T04:16:27.372Z,83.12
2018-03-26T04:17:27.362Z,81.88
2018-03-26T04:18:27.354Z,82.74
2018-03-26T04:19:27.341Z,82.55
2018-03-26T04:20:27.332Z,82.46
2018-03-26T04:21:27.324Z,82.74
2018-03-26T04:22:27.311Z,82.74
2018-03-26T04:23:27.304Z,82.74
2018-03-26T04:24:27.295Z,82.74
2018-03-26T04:25:27.284Z,82.93
2018-03-26T04:26:27.323Z,82.36
2018-03-26T04:27:27.266Z,82.74
2018-03-26T04:28:27.253Z,82.55
2018-03-26T04:29:27.246Z,83.22
2018-03-26T04:30:27.233Z,82.55
2018-03-26T04:31:27.223Z,82.74
2018-03-26T04:32:27.213Z,82.84
2018-03-26T04:33:27.203Z,82.74
2018-03-26T04:34:27.193Z,82.84
2018-03-26T04:35:27.186Z,82.65
2018-03-26T04:36:27.179Z,82.74
2018-03-26T04:37:27.165Z,82.65
2018-03-26T04:38:27.153Z,82.84
2018-03-26T04:39:27.145Z,81.98
2018-03-26T04:40:27.136Z,82.08
2018-03-26T04:41:27.124Z,82.55
2018-03-26T04:42:27.116Z,82.55
2018-03-26T04:43:27.105Z,82.65
2018-03-26T04:44:27.097Z,83.22
2018-03-26T04:45:27.086Z,82.93
2018-03-26T04:46:27.078Z,82.65
2018-03-26T04:47:27.071Z,83.12
2018-03-26T04:48:27.060Z,83.31
2018-03-26T04:49:27.047Z,83.50
2018-03-26T04:50:27.087Z,83.03
2018-03-26T04:51:27.026Z,83.22
2018-03-26T04:52:27.020Z,83.40
2018-03-26T04:53:27.006Z,83.50
2018-03-26T04:54:26.996Z,83.22
2018-03-26T04:55:26.988Z,83.12
2018-03-26T04:56:26.978Z,82.84
2018-03-26T04:57:26.967Z,83.22
2018-03-26T04:58:26.960Z,83.22
2018-03-26T04:59:26.948Z,83.97
2018-03-26T05:00:26.939Z,83.97
2018-03-26T05:01:26.952Z,83.31
2018-03-26T05:02:26.917Z,83.31
2018-03-26T05:03:26.908Z,83.59
2018-03-26T05:04:26.898Z,83.78
2018-03-26T05:05:26.890Z,83.50
2018-03-26T05:06:26.879Z,83.59
2018-03-26T05:07:26.871Z,83.40
2018-03-26T05:08:26.858Z,83.50
2018-03-26T05:09:26.847Z,83.50
2018-03-26T05:10:26.840Z,83.59
2018-03-26T05:11:26.829Z,83.50
2018-03-26T05:12:26.820Z,83.69
2018-03-26T05:13:26.809Z,84.17
2018-03-26T05:14:26.811Z,84.36
2018-03-26T05:15:26.789Z,83.97
2018-03-26T05:16:26.781Z,83.97
2018-03-26T05:17:27.706Z,83.78
2018-03-26T05:18:26.760Z,84.36
2018-03-26T05:19:26.750Z,83.78
2018-03-26T05:20:26.737Z,84.07
2018-03-26T05:21:26.726Z,83.40
2018-03-26T05:22:26.721Z,83.78
2018-03-26T05:23:26.710Z,84.17
2018-03-26T05:24:26.701Z,82.84
2018-03-26T05:25:26.690Z,84.07
2018-03-26T05:26:26.683Z,84.17
2018-03-26T05:27:26.673Z,83.78
2018-03-26T05:28:26.661Z,84.36
2018-03-26T05:29:26.655Z,83.88
2018-03-26T05:30:26.641Z,83.78
2018-03-26T05:31:26.630Z,83.88
2018-03-26T05:32:26.624Z,83.78
2018-03-26T05:33:26.613Z,81.60
2018-03-26T05:34:26.603Z,83.50
2018-03-26T05:35:26.590Z,83.97
2018-03-26T05:36:26.587Z,83.69
2018-03-26T05:37:26.570Z,83.59
2018-03-26T05:38:26.564Z,83.50
2018-03-26T05:39:26.561Z,84.17
2018-03-26T05:40:26.574Z,83.97
2018-03-26T05:41:26.532Z,83.88
2018-03-26T05:42:26.523Z,83.40
2018-03-26T05:43:26.509Z,83.88
2018-03-26T05:44:26.505Z,84.36
2018-03-26T05:45:26.493Z,83.78
2018-03-26T05:46:26.483Z,83.78
2018-03-26T05:47:26.474Z,83.31
2018-03-26T05:48:26.464Z,83.40
2018-03-26T05:49:26.453Z,84.26
2018-03-26T05:50:26.438Z,83.59
2018-03-26T05:51:26.430Z,83.40
2018-03-26T05:52:26.428Z,83.12
2018-03-26T05:53:26.415Z,83.40
2018-03-26T05:54:26.407Z,83.50
2018-03-26T05:55:26.393Z,82.93
2018-03-26T05:56:26.387Z,83.78
2018-03-26T05:57:26.374Z,83.22
2018-03-26T05:58:26.365Z,83.40
2018-03-26T05:59:26.356Z,82.55
2018-03-26T06:00:26.347Z,83.40
2018-03-26T06:01:26.333Z,83.03
2018-03-26T06:02:26.324Z,83.03
2018-03-26T06:03:26.314Z,83.12
2018-03-26T06:04:26.307Z,82.84
2018-03-26T06:05:26.294Z,83.40
2018-03-26T06:06:26.287Z,83.40
2018-03-26T06:07:26.274Z,82.93
2018-03-26T06:08:26.269Z,83.22
2018-03-26T06:09:26.257Z,82.74
2018-03-26T06:10:26.247Z,83.22
2018-03-26T06:11:26.262Z,83.31
2018-03-26T06:12:26.233Z,83.03
2018-03-26T06:13:26.216Z,83.22
2018-03-26T06:14:26.208Z,82.65
2018-03-26T06:15:26.197Z,82.84
2018-03-26T06:16:26.190Z,83.22
2018-03-26T06:17:26.180Z,82.93
2018-03-26T06:18:26.164Z,82.84
2018-03-26T06:19:26.157Z,83.03
2018-03-26T06:20:26.148Z,82.93
2018-03-26T06:21:26.137Z,82.08
2018-03-26T06:22:26.132Z,82.36
2018-03-26T06:23:26.119Z,82.93
2018-03-26T06:24:26.110Z,82.17
2018-03-26T06:25:26.101Z,81.98
2018-03-26T06:26:26.088Z,82.17
2018-03-26T06:27:26.078Z,82.93
2018-03-26T06:28:26.072Z,82.65
2018-03-26T06:29:26.060Z,82.93
2018-03-26T06:30:26.061Z,80.94
2018-03-26T06:31:26.039Z,82.93
2018-03-26T06:32:26.033Z,84.45
2018-03-26T06:33:26.021Z,80.65
2018-03-26T06:34:26.018Z,84.45
2018-03-26T06:35:26.006Z,84.26
2018-03-26T06:36:25.991Z,83.03
2018-03-26T06:37:25.982Z,83.22
2018-03-26T06:38:25.978Z,82.65
2018-03-26T06:39:25.961Z,82.08
2018-03-26T06:40:25.955Z,82.93
2018-03-26T06:41:25.943Z,83.12
2018-03-26T06:42:25.934Z,83.78
2018-03-26T06:43:25.924Z,83.03
2018-03-26T06:44:25.915Z,82.65
2018-03-26T06:45:25.903Z,84.55
2018-03-26T06:46:25.896Z,84.26
2018-03-26T06:47:25.883Z,83.22
2018-03-26T06:48:25.880Z,83.59
2018-03-26T06:49:25.867Z,83.31
2018-03-26T06:50:25.858Z,82.36
2018-03-26T06:51:25.848Z,83.78
2018-03-26T06:52:25.837Z,83.59
2018-03-26T06:53:25.826Z,83.69
2018-03-26T06:54:25.824Z,82.84
2018-03-26T06:55:25.812Z,83.50
2018-03-26T06:56:25.798Z,83.22
2018-03-26T06:57:26.721Z,82.93
2018-03-26T06:58:25.776Z,82.84
2018-03-26T06:59:25.787Z,84.64
2018-03-26T07:00:25.760Z,83.97
2018-03-26T07:01:25.754Z,83.12
2018-03-26T07:02:25.741Z,83.59
2018-03-26T07:03:25.738Z,83.31
2018-03-26T07:04:25.722Z,83.03
2018-03-26T07:05:25.711Z,82.27
2018-03-26T07:06:25.703Z,84.17
2018-03-26T07:07:25.693Z,83.22
2018-03-26T07:08:25.687Z,82.84
2018-03-26T07:09:25.678Z,82.93
2018-03-26T07:10:26.679Z,82.93
2018-03-26T07:11:25.656Z,82.46
2018-03-26T07:12:25.696Z,82.59
2018-03-26T07:13:25.637Z,82.78
2018-03-26T07:14:25.630Z,83.26
2018-03-26T07:15:25.619Z,83.16
2018-03-26T07:16:25.611Z,81.17
2018-03-26T07:17:25.600Z,81.17
2018-03-26T07:18:25.591Z,80.79
2018-03-26T07:19:25.604Z,80.98
2018-03-26T07:20:25.573Z,81.45
2018-03-26T07:21:25.563Z,80.60
2018-03-26T07:22:25.556Z,80.41
2018-03-26T07:23:25.548Z,80.79
2018-03-26T07:24:25.555Z,80.41
2018-03-26T07:25:25.527Z,79.84
2018-03-26T07:26:25.518Z,79.65
2018-03-26T07:27:25.511Z,79.65
2018-03-26T07:28:25.506Z,79.84
2018-03-26T07:29:25.533Z,80.13
2018-03-26T07:30:25.497Z,79.74
2018-03-26T07:31:25.479Z,79.65
2018-03-26T07:32:25.470Z,79.94
2018-03-26T07:33:25.459Z,80.22
2018-03-26T07:34:25.452Z,80.41
2018-03-26T07:35:25.447Z,81.36
2018-03-26T07:36:25.438Z,81.12
2018-03-26T07:37:25.428Z,80.26
2018-03-26T07:38:25.423Z,79.41
2018-03-26T07:39:25.436Z,78.74
2018-03-26T07:40:25.399Z,81.02
2018-03-26T07:41:25.394Z,79.88
2018-03-26T07:42:25.404Z,79.41
2018-03-26T07:43:25.406Z,79.97
2018-03-26T07:44:25.370Z,78.93
2018-03-26T07:45:25.362Z,78.64
2018-03-26T07:46:25.353Z,79.03
2018-03-26T07:47:25.377Z,77.41
2018-03-26T07:48:25.341Z,77.03
2018-03-26T07:49:25.333Z,77.45
2018-03-26T07:50:25.323Z,79.16
2018-03-26T07:51:25.312Z,77.64
2018-03-26T07:52:25.306Z,78.97
2018-03-26T07:53:25.302Z,77.92
2018-03-26T07:54:25.285Z,77.17
2018-03-26T07:55:25.284Z,76.88
2018-03-26T07:56:25.275Z,78.30
2018-03-26T07:57:25.268Z,76.16
2018-03-26T07:58:25.262Z,77.11
2018-03-26T07:59:25.254Z,76.73
2018-03-26T08:00:25.825Z,77.58
2018-03-26T08:01:25.239Z,76.96
2018-03-26T08:02:25.227Z,78.29
2018-03-26T08:03:25.966Z,75.53
2018-03-26T08:04:25.214Z,76.57
2018-03-26T08:05:25.211Z,77.62
2018-03-26T08:06:25.212Z,78.48
2018-03-26T08:07:25.192Z,78.29
2018-03-26T08:08:25.185Z,78.77
2018-03-26T08:09:25.179Z,74.80
2018-03-26T08:10:25.172Z,78.14
2018-03-26T08:11:25.179Z,78.14
2018-03-26T08:12:25.159Z,78.27
2018-03-26T08:13:25.150Z,75.89
2018-03-26T08:14:25.139Z,73.70
2018-03-26T08:15:25.131Z,79.83
2018-03-26T08:16:25.128Z,77.26
2018-03-26T08:17:25.125Z,78.31
2018-03-26T08:18:25.113Z,77.83
2018-03-26T08:19:25.103Z,76.82
2018-03-26T08:20:25.100Z,77.59
2018-03-26T08:21:25.087Z,77.30
2018-03-26T08:22:25.078Z,76.92
2018-03-26T08:23:25.080Z,76.54
2018-03-26T08:24:25.071Z,76.25
2018-03-26T08:25:25.063Z,76.44
2018-03-26T08:26:25.060Z,77.01
2018-03-26T08:27:25.044Z,77.72
2018-03-26T08:28:25.039Z,74.86
2018-03-26T08:29:25.035Z,76.57
2018-03-26T08:30:25.028Z,76.96
2018-03-26T08:31:25.023Z,75.66
2018-03-26T08:32:25.015Z,76.52
2018-03-26T08:33:25.007Z,76.90
2018-03-26T08:34:25.018Z,76.23
2018-03-26T08:35:25.004Z,74.93
2018-03-26T08:36:25.015Z,73.79
2018-03-26T08:37:24.984Z,74.65
2018-03-26T08:38:24.981Z,72.93
2018-03-26T08:39:24.977Z,74.46
2018-03-26T08:40:24.970Z,76.50
2018-03-26T08:41:24.958Z,73.73
2018-03-26T08:42:25.029Z,73.44
2018-03-26T08:43:24.951Z,73.16
2018-03-26T08:44:24.951Z,72.14
2018-03-26T08:45:24.948Z,73.96
2018-03-26T08:46:24.944Z,70.42
2018-03-26T08:47:24.938Z,71.76
2018-03-26T08:48:24.934Z,72.05
2018-03-26T08:49:24.962Z,71.00
2018-03-26T08:50:24.962Z,72.18
2018-03-26T08:51:24.933Z,72.75
2018-03-26T08:52:24.926Z,67.97
2018-03-26T08:53:24.922Z,69.79
2018-03-26T08:54:24.920Z,71.16
2018-03-26T08:55:24.922Z,70.59
2018-03-26T08:56:24.919Z,69.82
2018-03-26T08:57:24.920Z,66.25
2018-03-26T08:58:24.915Z,65.17
2018-03-26T08:59:24.920Z,64.31
2018-03-26T09:00:24.920Z,69.47
2018-03-26T09:01:24.915Z,69.66
2018-03-26T09:02:24.917Z,69.85
2018-03-26T09:03:24.917Z,64.02
2018-03-26T09:04:24.920Z,68.84
2018-03-26T09:05:24.918Z,67.69
2018-03-26T09:06:24.920Z,65.97
2018-03-26T09:07:24.931Z,70.94
2018-03-26T09:08:24.925Z,69.12
2018-03-26T09:09:24.928Z,68.64
2018-03-26T09:10:24.927Z,72.41
2018-03-26T09:11:24.928Z,70.97
2018-03-26T09:12:24.937Z,65.33
2018-03-26T09:13:24.932Z,66.28
2018-03-26T09:14:24.932Z,63.99
2018-03-26T09:15:24.935Z,61.88
2018-03-26T09:16:24.947Z,63.60
2018-03-26T09:17:24.946Z,68.10
2018-03-26T09:18:24.947Z,65.23
2018-03-26T09:19:24.952Z,66.67
2018-03-26T09:20:24.952Z,65.45
2018-03-26T09:21:24.950Z,64.53
2018-03-26T09:22:24.961Z,63.10
2018-03-26T09:23:24.959Z,60.16
2018-03-26T09:24:24.965Z,59.94
2018-03-26T09:25:24.967Z,62.23
2018-03-26T09:26:24.972Z,60.44
2018-03-26T09:27:24.976Z,58.34
2018-03-26T09:28:24.979Z,59.39
2018-03-26T09:29:24.982Z,61.11
2018-03-26T09:30:24.987Z,58.84
2018-03-26T09:31:24.992Z,58.08
2018-03-26T09:32:25.030Z,56.45
2018-03-26T09:33:25.001Z,55.01
2018-03-26T09:34:25.003Z,54.72
2018-03-26T09:35:25.042Z,59.83
2018-03-26T09:36:25.012Z,58.01
2018-03-26T09:37:25.017Z,54.66
2018-03-26T09:38:25.023Z,54.15
2018-03-26T09:39:25.673Z,55.68
2018-03-26T09:40:25.038Z,57.60
2018-03-26T09:41:25.041Z,57.21
2018-03-26T09:42:25.042Z,55.49
2018-03-26T09:43:25.051Z,56.54
2018-03-26T09:44:25.059Z,59.71
2018-03-26T09:45:25.063Z,63.06
2018-03-26T09:46:25.069Z,58.01
2018-03-26T09:47:25.074Z,59.16
2018-03-26T09:48:25.078Z,60.60
2018-03-26T09:49:25.109Z,63.12
2018-03-26T09:50:25.090Z,58.07
2018-03-26T09:51:25.097Z,52.09
2018-03-26T09:52:25.107Z,51.90
2018-03-26T09:53:25.148Z,55.07
2018-03-26T09:54:25.114Z,55.83
2018-03-26T09:55:25.118Z,53.44
2018-03-26T09:56:25.162Z,52.19
2018-03-26T09:57:25.138Z,59.77
2018-03-26T09:58:25.142Z,62.74
2018-03-26T09:59:25.152Z,63.16
2018-03-26T10:00:25.152Z,56.46
2018-03-26T10:01:25.156Z,54.93
2018-03-26T10:02:25.165Z,50.78
2018-03-26T10:03:25.403Z,49.98
2018-03-26T10:04:25.180Z,50.51
2018-03-26T10:05:25.184Z,52.91
2018-03-26T10:06:25.196Z,53.77
2018-03-26T10:07:25.197Z,54.72
2018-03-26T10:08:25.752Z,54.05
2018-03-26T10:09:25.235Z,54.63
2018-03-26T10:10:25.218Z,55.97
2018-03-26T10:11:25.225Z,57.92
2018-03-26T10:12:25.232Z,66.49
2018-03-26T10:13:25.236Z,60.82
2018-03-26T10:14:25.243Z,55.07
2018-03-26T10:15:25.250Z,52.48
2018-03-26T10:16:25.259Z,54.30
2018-03-26T10:17:25.264Z,52.64
2018-03-26T10:18:25.275Z,52.83
2018-03-26T10:19:25.285Z,54.24
2018-03-26T10:20:25.283Z,57.28
2018-03-26T10:21:25.288Z,56.81
2018-03-26T10:22:25.302Z,58.34
2018-03-26T10:23:25.308Z,62.65
2018-03-26T10:24:25.314Z,60.54
2018-03-26T10:25:25.321Z,58.88
2018-03-26T10:26:25.327Z,58.02
2018-03-26T10:27:25.337Z,66.13
2018-03-26T10:28:25.350Z,67.79
2018-03-26T10:29:25.347Z,61.57
2018-03-26T10:30:25.357Z,60.32
2018-03-26T10:31:25.367Z,58.44
2018-03-26T10:32:25.371Z,57.54
2018-03-26T10:33:25.380Z,57.16
2018-03-26T10:34:25.383Z,58.56
2018-03-26T10:35:25.395Z,63.54
2018-03-26T10:36:25.406Z,59.14
2018-03-26T10:37:25.409Z,62.40
2018-03-26T10:38:25.415Z,60.48
2018-03-26T10:39:25.428Z,59.40
2018-03-26T10:40:25.431Z,61.69
2018-03-26T10:41:25.439Z,61.98
2018-03-26T10:42:25.444Z,59.78
2018-03-26T10:43:25.452Z,62.74
2018-03-26T10:44:25.457Z,62.94
2018-03-26T10:45:25.464Z,64.15
2018-03-26T10:46:25.473Z,65.81
2018-03-26T10:47:25.479Z,62.37
2018-03-26T10:48:25.485Z,60.64
2018-03-26T10:49:25.498Z,61.60
2018-03-26T10:50:25.499Z,61.02
2018-03-26T10:51:25.509Z,60.16
2018-03-26T10:52:25.513Z,59.78
2018-03-26T10:53:25.523Z,60.13
2018-03-26T10:54:25.526Z,60.68
2018-03-26T10:55:25.533Z,63.16
2018-03-26T10:56:25.544Z,68.90
2018-03-26T10:57:25.546Z,72.37
2018-03-26T10:58:25.554Z,66.83
2018-03-26T10:59:25.560Z,62.43
2018-03-26T11:00:25.613Z,60.16
2018-03-26T11:01:25.574Z,72.16
2018-03-26T11:02:25.583Z,65.94
2018-03-26T11:03:25.592Z,62.49
2018-03-26T11:04:25.609Z,60.58
2018-03-26T11:05:25.598Z,59.20
2018-03-26T11:06:25.605Z,60.45
2018-03-26T11:07:25.620Z,62.49
2018-03-26T11:08:25.623Z,65.84
2018-03-26T11:09:25.648Z,64.69
2018-03-26T11:10:25.631Z,60.29
2018-03-26T11:11:25.638Z,59.97
2018-03-26T11:12:25.645Z,61.88
2018-03-26T11:13:25.652Z,65.23
2018-03-26T11:14:25.658Z,62.94
2018-03-26T11:15:25.662Z,60.35
2018-03-26T11:16:25.669Z,64.47
2018-03-26T11:17:25.675Z,64.28
2018-03-26T11:18:25.681Z,70.53
2018-03-26T11:19:25.718Z,65.65
2018-03-26T11:20:25.695Z,64.25
2018-03-26T11:21:25.703Z,62.43
2018-03-26T11:22:25.708Z,64.05
2018-03-26T11:23:25.714Z,59.17
2018-03-26T11:24:25.720Z,60.61
2018-03-26T11:25:25.725Z,60.64
2018-03-26T11:26:25.736Z,58.91
2018-03-26T11:27:25.865Z,59.68
2018-03-26T11:28:25.746Z,58.15
2018-03-26T11:29:25.786Z,59.58
2018-03-26T11:30:25.761Z,60.64
2018-03-26T11:31:25.764Z,58.15
2018-03-26T11:32:25.768Z,61.50
2018-03-26T11:33:25.774Z,57.48
2018-03-26T11:34:25.781Z,55.27
2018-03-26T11:35:25.789Z,55.44
2018-03-26T11:36:25.865Z,58.66
2018-03-26T11:37:25.802Z,57.70
2018-03-26T11:38:25.805Z,56.62
2018-03-26T11:39:25.813Z,57.77
2018-03-26T11:40:25.820Z,59.08
2018-03-26T11:41:25.831Z,65.01
2018-03-26T11:42:25.837Z,61.85
2018-03-26T11:43:25.838Z,60.13
2018-03-26T11:44:25.841Z,59.63
2018-03-26T11:45:25.854Z,62.97
2018-03-26T11:46:25.852Z,61.44
2018-03-26T11:47:25.874Z,61.35
2018-03-26T11:48:25.869Z,62.11
2018-03-26T11:49:25.872Z,63.35
2018-03-26T11:50:25.884Z,62.71
2018-03-26T11:51:25.882Z,60.71
2018-03-26T11:52:25.887Z,61.57
2018-03-26T11:53:25.893Z,58.51
2018-03-26T11:54:25.904Z,58.61
2018-03-26T11:55:25.904Z,59.08
2018-03-26T11:56:25.910Z,60.58
2018-03-26T11:57:25.918Z,62.43
2018-03-26T11:58:25.918Z,60.71
2018-03-26T11:59:25.923Z,61.47
2018-03-26T12:00:25.929Z,59.56
2018-03-26T12:01:25.939Z,60.04
2018-03-26T12:02:25.960Z,60.23
2018-03-26T12:03:25.943Z,59.75
2018-03-26T12:04:25.949Z,62.14
2018-03-26T12:05:25.954Z,61.66
2018-03-26T12:06:25.961Z,62.55
2018-03-26T12:07:25.970Z,57.75
2018-03-26T12:08:25.981Z,60.71
2018-03-26T12:09:25.976Z,60.20
2018-03-26T12:10:25.980Z,61.35
2018-03-26T12:11:25.988Z,70.81
2018-03-26T12:12:25.988Z,70.36
2018-03-26T12:13:25.994Z,62.01
2018-03-26T12:14:26.000Z,63.07
2018-03-26T12:15:25.998Z,62.52
2018-03-26T12:16:26.007Z,64.40
2018-03-26T12:17:26.009Z,64.05
2018-03-26T12:18:26.014Z,60.49
2018-03-26T12:19:26.019Z,61.25
2018-03-26T12:20:26.025Z,62.40
2018-03-26T12:21:26.025Z,61.72
2018-03-26T12:22:26.028Z,64.02
2018-03-26T12:23:26.033Z,62.68
2018-03-26T12:24:26.038Z,66.13
2018-03-26T12:25:26.040Z,61.54
2018-03-26T12:26:26.046Z,60.10
2018-03-26T12:27:26.053Z,60.39
2018-03-26T12:28:26.053Z,60.01
2018-03-26T12:29:26.056Z,61.35
2018-03-26T12:30:26.064Z,57.71
2018-03-26T12:31:26.064Z,71.80
2018-03-26T12:32:26.111Z,64.82
2018-03-26T12:33:26.073Z,63.86
2018-03-26T12:34:26.076Z,62.52
2018-03-26T12:35:26.080Z,62.90
2018-03-26T12:36:26.085Z,61.19
2018-03-26T12:37:26.087Z,61.25
2018-03-26T12:38:26.093Z,61.35
2018-03-26T12:39:26.092Z,61.35
2018-03-26T12:40:26.101Z,63.54
2018-03-26T12:41:26.109Z,61.44
2018-03-26T12:42:26.109Z,61.16
2018-03-26T12:43:26.113Z,65.64
2018-03-26T12:44:26.119Z,60.10
2018-03-26T12:45:26.121Z,63.16
2018-03-26T12:46:26.355Z,66.16
2018-03-26T12:47:26.130Z,62.81
2018-03-26T12:48:26.130Z,63.10
2018-03-26T12:49:26.142Z,59.08
2018-03-26T12:50:26.145Z,57.75
2018-03-26T12:51:26.149Z,58.70
2018-03-26T12:52:26.151Z,59.27